Time;durP1;ratioP1;P1;durP2;ratioP2;P2;SDS_P1;SDS_P2;PMS_P1;PMS_P2;Temp;Humidity;BMP_temperature;BMP_pressure;BME280_temperature;BME280_humidity;BME280_pressure;Samples;Min_cycle;Max_cycle;Signal;HPM_P1;HPM_P2
2022/10/26 00:00:08;;;;;;;5.07;2.40;;;;;;;14.98;82.64;100333.00;5034382;28;20401;-80
2022/10/26 00:02:33;;;;;;;8.43;2.55;;;;;;;14.97;82.83;100345.00;5050793;28;20450;-80
2022/10/26 00:04:59;;;;;;;6.27;2.60;;;;;;;14.95;83.11;100344.47;5029435;28;20438;-80
2022/10/26 00:07:24;;;;;;;6.07;2.23;;;;;;;14.95;83.11;100336.28;5052809;28;20906;-80
2022/10/26 00:09:50;;;;;;;6.25;2.28;;;;;;;14.90;83.01;100344.47;5063095;28;20399;-80
2022/10/26 00:12:15;;;;;;;6.00;2.57;;;;;;;14.91;82.96;100346.09;5054936;28;20404;-80
2022/10/26 00:14:40;;;;;;;5.73;2.40;;;;;;;14.90;82.96;100345.28;5049424;28;20415;-80
2022/10/26 00:17:05;;;;;;;8.40;2.10;;;;;;;14.94;82.92;100348.28;5055788;28;20431;-80
2022/10/26 00:19:34;;;;;;;6.33;2.50;;;;;;;14.92;82.88;100339.53;5073795;28;20397;-79
2022/10/26 00:21:59;;;;;;;7.27;2.00;;;;;;;14.94;82.92;100340.91;5060248;28;20413;-80
2022/10/26 00:24:25;;;;;;;7.53;2.27;;;;;;;14.95;82.87;100339.81;5058728;28;20434;-80
2022/10/26 00:26:50;;;;;;;3.87;2.30;;;;;;;14.98;82.62;100341.19;5053925;28;20818;-79
2022/10/26 00:29:17;;;;;;;7.97;2.23;;;;;;;14.97;82.79;100342.28;5051888;28;20403;-80
2022/10/26 00:31:42;;;;;;;2.60;2.00;;;;;;;14.95;82.79;100341.75;5059429;28;20467;-80
2022/10/26 00:34:09;;;;;;;7.97;2.57;;;;;;;14.95;82.77;100341.75;5057416;28;20411;-80
2022/10/26 00:36:35;;;;;;;5.20;2.17;;;;;;;14.96;82.68;100337.91;5038143;28;20408;-80
2022/10/26 00:39:00;;;;;;;9.77;2.13;;;;;;;14.96;82.52;100340.63;5044005;28;20486;-80
2022/10/26 00:41:30;;;;;;;8.90;2.75;;;;;;;14.94;82.55;100335.47;5042448;28;20439;-80
2022/10/26 00:43:55;;;;;;;5.97;2.40;;;;;;;14.94;82.97;100334.63;5047278;28;20425;-80
2022/10/26 00:46:25;;;;;;;4.53;2.07;;;;;;;14.92;82.85;100348.53;5055173;28;20405;-79
2022/10/26 00:48:54;;;;;;;6.30;2.40;;;;;;;14.90;82.90;100337.09;5048376;28;20407;-80
2022/10/26 00:51:31;;;;;;;8.80;2.10;;;;;;;14.86;82.94;100330.56;5055405;28;20416;-80
2022/10/26 00:53:59;;;;;;;6.20;1.80;;;;;;;14.89;82.90;100338.19;5052127;28;20401;-80
2022/10/26 00:56:25;;;;;;;11.07;2.20;;;;;;;14.90;82.94;100330.81;5053256;28;20400;-80
2022/10/26 00:58:51;;;;;;;5.47;1.88;;;;;;;14.90;82.99;100331.66;5052979;28;20892;-80
2022/10/26 01:01:16;;;;;;;5.40;1.90;;;;;;;14.91;82.85;100330.56;5050758;28;20413;-80
2022/10/26 01:03:41;;;;;;;6.00;2.10;;;;;;;14.90;82.98;100325.38;5065589;28;20407;-80
2022/10/26 01:06:08;;;;;;;9.00;2.57;;;;;;;14.92;82.82;100323.16;5052425;28;20492;-80
2022/10/26 01:08:33;;;;;;;5.75;2.38;;;;;;;14.91;82.93;100311.47;5051840;28;20489;-80
2022/10/26 01:10:59;;;;;;;7.13;2.90;;;;;;;14.95;82.69;100311.72;5055230;28;20841;-80
2022/10/26 01:13:27;;;;;;;8.30;2.22;;;;;;;14.94;82.71;100313.63;5054268;28;20408;-80
2022/10/26 01:16:10;;;;;;;10.60;3.45;;;;;;;14.96;82.84;100300.50;5055364;28;20396;-80
2022/10/26 01:19:00;;;;;;;6.20;3.42;;;;;;;14.94;83.01;100286.34;5048550;28;20410;-80
2022/10/26 01:21:50;;;;;;;3.65;2.78;;;;;;;14.95;82.90;100282.50;5041779;28;20408;-80
2022/10/26 01:24:41;;;;;;;8.05;2.72;;;;;;;14.95;83.09;100279.78;5050529;28;20502;-80
2022/10/26 01:27:32;;;;;;;7.15;2.28;;;;;;;14.96;83.03;100286.88;5020383;28;20471;-80
2022/10/26 01:30:32;;;;;;;6.35;2.78;;;;;;;14.96;83.13;100294.22;5038788;28;20398;-80
2022/10/26 01:33:23;;;;;;;16.95;3.08;;;;;;;14.97;83.06;100301.34;5035356;28;20409;-80
2022/10/26 01:36:07;;;;;;;7.20;2.42;;;;;;;14.96;83.30;100292.31;5052765;28;20453;-80
2022/10/26 01:38:51;;;;;;;3.97;2.30;;;;;;;14.95;83.24;100293.41;5050039;28;20914;-80
2022/10/26 01:41:16;;;;;;;4.60;2.40;;;;;;;14.93;83.50;100302.97;5031112;28;20471;-80
2022/10/26 01:43:49;;;;;;;5.53;2.40;;;;;;;14.94;83.73;100293.72;5054136;28;20846;-80
2022/10/26 01:46:17;;;;;;;10.52;3.13;;;;;;;14.94;83.63;100308.16;5055030;28;20488;-80
2022/10/26 01:48:44;;;;;;;11.60;4.18;;;;;;;14.94;83.63;100293.72;5050912;28;20401;-80
2022/10/26 01:51:12;;;;;;;8.80;4.05;;;;;;;14.95;83.62;100296.13;5048701;28;20415;-80
2022/10/26 01:53:43;;;;;;;10.77;4.13;;;;;;;14.95;83.76;100301.59;5056031;28;20402;-80
2022/10/26 01:56:18;;;;;;;14.10;3.93;;;;;;;14.92;83.70;100310.34;5060959;28;20401;-80
2022/10/26 01:59:00;;;;;;;6.90;3.33;;;;;;;14.99;83.49;100315.50;5054635;28;20417;-80
2022/10/26 02:01:48;;;;;;;15.52;3.42;;;;;;;15.03;83.32;100319.31;5048369;28;20462;-80
2022/10/26 02:04:49;;;;;;;7.20;2.65;;;;;;;15.03;83.24;100314.69;5009997;28;20428;-80
2022/10/26 02:07:15;;;;;;;7.03;3.05;;;;;;;15.04;83.25;100323.69;5027162;28;20450;-80
2022/10/26 02:09:55;;;;;;;9.67;2.63;;;;;;;15.01;83.34;100322.34;5042952;28;20411;-81
2022/10/26 02:12:33;;;;;;;6.78;2.67;;;;;;;14.99;83.35;100329.97;5043558;28;20820;-81
2022/10/26 02:15:10;;;;;;;8.48;2.70;;;;;;;15.01;83.52;100343.34;5046719;28;20412;-80
2022/10/26 02:17:59;;;;;;;6.30;2.80;;;;;;;14.98;83.46;100344.69;5048059;28;20406;-80
2022/10/26 02:20:37;;;;;;;5.95;2.42;;;;;;;14.98;83.58;100360.28;5049727;28;20432;-80
2022/10/26 02:23:05;;;;;;;3.70;2.22;;;;;;;14.94;83.63;100353.75;5050862;28;20412;-80
2022/10/26 02:25:34;;;;;;;3.70;2.17;;;;;;;14.89;83.78;100354.56;5029246;28;20407;-80
2022/10/26 02:28:09;;;;;;;6.60;2.53;;;;;;;14.82;83.70;100361.41;5050983;28;20932;-80
2022/10/26 02:30:37;;;;;;;5.85;2.30;;;;;;;14.75;84.14;100356.19;5053562;28;20413;-80
2022/10/26 02:33:05;;;;;;;7.47;2.42;;;;;;;14.79;84.03;100345.56;5048903;28;20517;-80
2022/10/26 02:35:35;;;;;;;5.75;2.15;;;;;;;14.84;83.80;100342.84;5054133;28;20458;-80
2022/10/26 02:38:05;;;;;;;9.97;3.40;;;;;;;14.87;84.02;100345.00;5054175;28;20496;-80
2022/10/26 02:40:32;;;;;;;7.53;2.60;;;;;;;14.89;83.77;100370.09;5048955;28;20424;-81
2022/10/26 02:43:03;;;;;;;3.83;2.50;;;;;;;14.85;83.78;100358.13;5047306;28;20828;-80
2022/10/26 02:46:04;;;;;;;7.82;2.63;;;;;;;14.89;83.83;100370.09;5054004;28;20414;-80
2022/10/26 02:48:30;;;;;;;11.70;3.20;;;;;;;14.87;83.87;100367.66;5037699;28;20810;-80
2022/10/26 02:51:06;;;;;;;5.45;2.25;;;;;;;14.91;83.55;100379.66;5017172;28;20407;-80
2022/10/26 02:53:38;;;;;;;7.25;2.78;;;;;;;14.93;83.47;100366.56;5041608;28;20502;-80
2022/10/26 02:56:12;;;;;;;10.02;2.70;;;;;;;14.92;83.30;100361.38;5044227;28;20730;-80
2022/10/26 02:58:42;;;;;;;5.00;2.70;;;;;;;14.90;83.64;100361.66;5049592;28;20543;-80
2022/10/26 03:01:08;;;;;;;5.95;2.42;;;;;;;14.90;83.39;100355.38;5032296;28;20914;-80
2022/10/26 03:03:33;;;;;;;6.90;2.40;;;;;;;14.91;83.39;100359.75;5051943;28;20417;-80
2022/10/26 03:05:58;;;;;;;10.83;2.73;;;;;;;14.93;83.23;100369.28;5055633;28;20459;-80
2022/10/26 03:08:24;;;;;;;9.03;2.77;;;;;;;14.93;83.09;100368.47;5036705;28;20409;-80
2022/10/26 03:10:49;;;;;;;6.63;2.70;;;;;;;14.92;83.18;100372.28;5053825;28;20886;-80
2022/10/26 03:13:14;;;;;;;5.22;2.88;;;;;;;14.87;83.60;100364.94;5051172;28;20544;-80
2022/10/26 03:15:40;;;;;;;3.97;2.37;;;;;;;14.87;83.47;100364.94;5026293;28;20409;-80
2022/10/26 03:18:06;;;;;;;7.22;2.53;;;;;;;14.87;83.53;100364.94;5052665;28;20407;-80
2022/10/26 03:20:31;;;;;;;8.20;3.55;;;;;;;14.85;83.53;100358.13;5053413;28;20402;-80
2022/10/26 03:22:57;;;;;;;10.10;2.77;;;;;;;14.75;84.06;100369.06;5049513;28;20415;-80
2022/10/26 03:25:23;;;;;;;5.78;2.55;;;;;;;14.71;84.33;100367.94;5053589;28;20437;-80
2022/10/26 03:28:02;;;;;;;5.60;2.50;;;;;;;14.71;84.26;100363.31;5056352;28;20418;-80
2022/10/26 03:30:29;;;;;;;7.43;2.58;;;;;;;14.70;84.48;100356.22;5045832;28;20394;-80
2022/10/26 03:32:54;;;;;;;11.07;2.80;;;;;;;14.68;84.41;100360.31;5052510;28;20745;-80
2022/10/26 03:35:20;;;;;;;9.40;2.88;;;;;;;14.66;84.59;100371.50;5033496;28;20393;-80
2022/10/26 03:37:45;;;;;;;8.60;3.20;;;;;;;14.64;84.74;100360.06;5036486;28;20405;-80
2022/10/26 03:40:11;;;;;;;12.30;3.67;;;;;;;14.62;84.86;100364.16;5024554;28;20407;-80
2022/10/26 03:42:36;;;;;;;5.20;2.70;;;;;;;14.55;84.96;100365.22;5050395;28;20417;-80
2022/10/26 03:45:02;;;;;;;4.30;2.20;;;;;;;14.59;84.89;100359.25;5052520;28;20405;-80
2022/10/26 03:47:27;;;;;;;8.90;2.50;;;;;;;14.62;84.81;100359.50;5056077;28;20427;-80
2022/10/26 03:49:53;;;;;;;5.03;2.70;;;;;;;14.62;84.61;100362.22;5045179;28;20429;-80
2022/10/26 03:52:18;;;;;;;19.57;5.70;;;;;;;14.62;84.52;100355.97;5051680;28;20769;-80
2022/10/26 03:54:43;;;;;;;17.87;7.47;;;;;;;14.62;84.54;100351.31;5051486;28;20405;-79
2022/10/26 03:57:08;;;;;;;7.23;2.90;;;;;;;14.66;84.51;100351.56;5052279;28;20831;-80
2022/10/26 03:59:34;;;;;;;7.78;2.75;;;;;;;14.67;84.53;100355.94;5043029;28;20411;-80
2022/10/26 04:01:59;;;;;;;12.27;2.50;;;;;;;14.68;84.44;100350.22;5044912;28;20765;-80
2022/10/26 04:04:24;;;;;;;2.80;2.33;;;;;;;14.73;84.23;100344.75;5054542;28;20425;-80
2022/10/26 04:06:50;;;;;;;6.90;2.65;;;;;;;14.81;83.65;100343.41;5059753;28;20412;-80
2022/10/26 04:09:15;;;;;;;8.47;2.77;;;;;;;14.76;83.92;100336.03;5057654;28;20482;-80
2022/10/26 04:11:40;;;;;;;7.13;2.50;;;;;;;14.68;84.37;100328.41;5052644;28;20406;-80
2022/10/26 04:14:05;;;;;;;4.28;2.50;;;;;;;14.69;84.24;100324.56;5044577;28;20422;-80
2022/10/26 04:16:31;;;;;;;8.77;2.83;;;;;;;14.70;84.43;100326.22;5040794;28;20480;-80
2022/10/26 04:18:56;;;;;;;6.23;2.73;;;;;;;14.68;84.68;100319.41;5052688;28;20493;-80
2022/10/26 04:21:21;;;;;;;6.83;2.83;;;;;;;14.68;84.47;100309.31;5048739;28;23640;-81
2022/10/26 04:23:47;;;;;;;17.13;3.73;;;;;;;14.69;84.73;100301.94;5052686;28;20415;-81
2022/10/26 04:26:12;;;;;;;6.30;2.60;;;;;;;14.73;84.47;100297.56;5043886;28;20464;-80
2022/10/26 04:28:37;;;;;;;6.10;2.73;;;;;;;14.74;84.71;100288.31;5054930;28;20404;-80
2022/10/26 04:31:02;;;;;;;12.93;2.70;;;;;;;14.75;84.50;100293.47;5044947;28;20399;-80
2022/10/26 04:33:28;;;;;;;6.57;2.90;;;;;;;14.75;84.57;100290.72;5049044;28;20396;-81
2022/10/26 04:35:58;;;;;;;5.13;2.53;;;;;;;14.75;84.69;100306.31;5050337;28;20399;-80
2022/10/26 04:38:24;;;;;;;8.02;2.90;;;;;;;14.73;84.78;100319.38;5056622;28;20412;-80
2022/10/26 04:40:49;;;;;;;5.43;2.70;;;;;;;14.73;84.71;100322.13;5034696;28;20389;-80
2022/10/26 04:43:15;;;;;;;8.07;2.72;;;;;;;14.74;84.93;100329.22;5049429;28;20409;-80
2022/10/26 04:45:40;;;;;;;6.13;2.23;;;;;;;14.74;84.82;100327.31;5041957;28;20409;-80
2022/10/26 04:48:09;;;;;;;5.23;1.93;;;;;;;14.73;84.96;100328.41;5054201;28;20864;-80
2022/10/26 04:50:35;;;;;;;9.00;2.90;;;;;;;14.71;85.03;100327.88;5053109;28;20397;-82
2022/10/26 04:53:00;;;;;;;8.55;2.58;;;;;;;14.70;85.07;100330.84;5050761;28;20405;-81
2022/10/26 04:55:26;;;;;;;12.47;3.43;;;;;;;14.69;85.26;100327.31;5053896;28;20746;-80
2022/10/26 04:57:51;;;;;;;6.32;3.55;;;;;;;14.70;85.01;100339.03;5054476;28;20760;-79
2022/10/26 05:00:16;;;;;;;9.83;3.40;;;;;;;14.70;84.99;100341.75;5066877;28;20434;-81
2022/10/26 05:02:42;;;;;;;5.70;2.73;;;;;;;14.66;84.92;100336.03;5052326;28;20441;-80
2022/10/26 05:05:07;;;;;;;3.97;2.80;;;;;;;14.65;85.30;100341.78;5066952;28;20440;-83
2022/10/26 05:07:33;;;;;;;6.67;3.00;;;;;;;14.64;85.44;100340.97;5047383;28;20481;-86
2022/10/26 05:09:58;;;;;;;5.90;2.57;;;;;;;14.63;85.15;100349.41;5052489;28;20776;-82
2022/10/26 05:12:23;;;;;;;7.03;2.90;;;;;;;14.58;85.47;100344.78;5048427;28;20405;-82
2022/10/26 05:14:48;;;;;;;9.00;3.17;;;;;;;14.55;85.51;100348.06;5030299;28;20414;-82
2022/10/26 05:17:14;;;;;;;6.30;2.90;;;;;;;14.58;85.74;100355.69;5052683;28;20405;-82
2022/10/26 05:19:39;;;;;;;4.30;2.90;;;;;;;14.62;85.42;100353.25;5051290;28;20402;-81
2022/10/26 05:22:04;;;;;;;8.67;3.47;;;;;;;14.63;85.24;100352.13;5055798;28;20399;-82
2022/10/26 05:24:30;;;;;;;10.63;3.13;;;;;;;14.61;85.36;100359.78;5055112;28;20428;-84
2022/10/26 05:26:55;;;;;;;4.83;3.23;;;;;;;14.62;85.34;100375.84;5037455;28;20768;-84
2022/10/26 05:29:20;;;;;;;8.90;3.10;;;;;;;14.62;85.36;100381.31;5055192;28;20409;-81
2022/10/26 05:31:46;;;;;;;12.63;2.83;;;;;;;14.60;85.63;100379.94;5057775;28;20404;-80
2022/10/26 05:34:11;;;;;;;5.97;2.87;;;;;;;14.59;85.66;100389.25;5052112;28;20530;-82
2022/10/26 05:36:36;;;;;;;5.13;2.87;;;;;;;14.60;85.65;100401.75;5052431;28;20405;-80
2022/10/26 05:39:02;;;;;;;7.93;2.90;;;;;;;14.61;85.54;100387.88;5043941;28;20812;-78
2022/10/26 05:41:27;;;;;;;8.73;3.60;;;;;;;14.60;85.50;100391.69;5046015;28;20424;-78
2022/10/26 05:43:52;;;;;;;7.60;3.23;;;;;;;14.62;85.64;100389.50;5045904;28;20444;-78
2022/10/26 05:46:18;;;;;;;6.95;3.45;;;;;;;14.62;85.31;100389.50;5043749;28;20398;-78
2022/10/26 05:48:43;;;;;;;7.40;3.83;;;;;;;14.66;85.65;100397.94;5042288;28;20769;-78
2022/10/26 05:51:09;;;;;;;6.80;3.63;;;;;;;14.67;85.59;100407.78;5025437;28;20409;-77
2022/10/26 05:53:34;;;;;;;7.15;4.10;;;;;;;14.68;85.27;100412.97;5045445;28;20401;-78
2022/10/26 05:56:00;;;;;;;8.27;4.40;;;;;;;14.69;85.36;100416.50;5043303;28;20972;-78
2022/10/26 05:58:26;;;;;;;11.45;4.40;;;;;;;14.70;85.38;100415.41;5042723;28;20894;-78
2022/10/26 06:01:13;;;;;;;8.98;4.40;;;;;;;14.71;85.35;100425.25;5043853;28;20416;-78
2022/10/26 06:04:01;;;;;;;9.40;3.88;;;;;;;14.68;85.57;100429.34;5054654;28;20955;-78
2022/10/26 06:06:38;;;;;;;7.43;4.13;;;;;;;14.67;85.46;100432.31;5046249;28;20409;-78
2022/10/26 06:09:04;;;;;;;15.18;5.13;;;;;;;14.67;85.79;100432.31;5040489;28;20914;-78
2022/10/26 06:11:29;;;;;;;9.55;4.80;;;;;;;14.71;85.47;100438.88;5039846;28;20401;-78
2022/10/26 06:13:59;;;;;;;6.03;4.60;;;;;;;14.71;85.60;100442.44;5042627;28;20442;-78
2022/10/26 06:16:41;;;;;;;14.25;5.82;;;;;;;14.73;85.57;100444.88;5038167;28;20492;-78
2022/10/26 06:19:31;;;;;;;14.50;5.35;;;;;;;14.71;85.67;100436.16;5041012;28;20472;-77
2022/10/26 06:22:05;;;;;;;7.38;3.70;;;;;;;14.70;85.83;100453.59;5040718;28;20420;-78
2022/10/26 06:24:33;;;;;;;7.53;3.42;;;;;;;14.68;85.66;100447.59;5038654;28;20428;-78
2022/10/26 06:27:05;;;;;;;7.95;3.38;;;;;;;14.67;85.53;100448.69;5039201;28;20468;-77
2022/10/26 06:30:00;;;;;;;4.45;3.17;;;;;;;14.68;85.42;100453.06;5042483;28;20401;-78
2022/10/26 06:32:27;;;;;;;5.05;3.17;;;;;;;14.67;85.64;100454.97;5041133;28;20491;-77
2022/10/26 06:35:16;;;;;;;9.85;3.60;;;;;;;14.66;85.60;100447.03;5043386;28;20547;-77
2022/10/26 06:37:44;;;;;;;9.25;4.32;;;;;;;14.68;85.38;100442.16;5001900;28;20409;-77
2022/10/26 06:40:12;;;;;;;8.93;3.75;;;;;;;14.68;85.38;100453.88;5039609;28;20553;-78
2022/10/26 06:42:37;;;;;;;8.40;4.20;;;;;;;14.68;85.26;100456.63;5041673;28;20421;-78
2022/10/26 06:45:03;;;;;;;6.87;4.10;;;;;;;14.70;85.30;100451.69;5040034;28;20417;-78
2022/10/26 06:47:59;;;;;;;10.37;4.03;;;;;;;14.72;85.42;100463.13;5040044;28;20781;-78
2022/10/26 06:50:39;;;;;;;14.75;4.38;;;;;;;14.75;85.19;100465.31;5040369;28;20474;-77
2022/10/26 06:53:32;;;;;;;7.55;4.35;;;;;;;14.76;85.19;100466.16;5040559;28;20413;-78
2022/10/26 06:55:58;;;;;;;13.43;4.60;;;;;;;14.77;85.20;100468.63;5039514;28;20407;-78
2022/10/26 06:58:28;;;;;;;7.22;3.80;;;;;;;14.77;85.24;100471.34;5034574;28;20531;-77
2022/10/26 07:00:54;;;;;;;6.80;3.63;;;;;;;14.79;85.21;100471.06;5034838;28;20965;-78
2022/10/26 07:03:19;;;;;;;8.65;4.20;;;;;;;14.76;85.53;100477.88;5035965;28;20424;-78
2022/10/26 07:05:45;;;;;;;7.23;3.93;;;;;;;14.78;85.64;100470.25;5035453;28;20405;-77
2022/10/26 07:08:11;;;;;;;7.13;3.83;;;;;;;14.78;85.41;100472.16;5032768;28;20417;-78
2022/10/26 07:10:38;;;;;;;6.97;3.63;;;;;;;14.81;85.61;100479.81;5014879;28;20410;-78
2022/10/26 07:13:07;;;;;;;9.70;4.55;;;;;;;14.79;85.51;100477.34;5037395;28;20745;-78
2022/10/26 07:15:34;;;;;;;6.80;4.18;;;;;;;14.83;85.38;100475.72;5037581;28;20411;-78
2022/10/26 07:17:59;;;;;;;7.13;3.38;;;;;;;14.87;85.39;100485.00;5039659;28;20425;-78
2022/10/26 07:20:24;;;;;;;13.83;3.70;;;;;;;14.88;85.60;100496.72;5039566;28;20908;-78
2022/10/26 07:22:54;;;;;;;7.33;3.67;;;;;;;14.81;85.83;100496.16;5037252;28;20490;-78
2022/10/26 07:25:21;;;;;;;6.63;3.72;;;;;;;14.82;86.22;100495.09;5041355;28;20884;-78
2022/10/26 07:27:46;;;;;;;7.18;3.72;;;;;;;14.89;85.97;100484.69;5046683;28;20420;-78
2022/10/26 07:30:12;;;;;;;6.75;3.63;;;;;;;14.96;85.55;100494.25;5055434;28;20409;-78
2022/10/26 07:32:37;;;;;;;8.07;4.13;;;;;;;14.99;85.78;100490.16;5053403;28;20824;-77
2022/10/26 07:35:03;;;;;;;16.43;4.27;;;;;;;15.06;85.51;100491.53;5049097;28;20401;-78
2022/10/26 07:37:29;;;;;;;6.75;3.83;;;;;;;15.15;85.29;100499.19;5047361;28;20553;-78
2022/10/26 07:39:54;;;;;;;10.77;3.63;;;;;;;15.17;85.19;100491.53;5046046;28;20389;-78
2022/10/26 07:42:19;;;;;;;6.90;3.23;;;;;;;15.21;85.20;100501.63;5045639;28;20550;-78
2022/10/26 07:44:44;;;;;;;8.13;3.50;;;;;;;15.25;85.21;100510.91;5045826;28;20503;-78
2022/10/26 07:47:10;;;;;;;6.13;3.20;;;;;;;15.28;84.99;100518.53;5030810;28;20913;-78
2022/10/26 07:49:35;;;;;;;18.20;4.23;;;;;;;15.32;85.17;100519.63;5045755;28;20425;-78
2022/10/26 07:52:00;;;;;;;9.87;4.07;;;;;;;15.38;84.80;100523.16;5030476;28;20401;-78
2022/10/26 07:54:26;;;;;;;6.53;3.73;;;;;;;15.41;84.82;100523.44;5046586;28;20437;-78
2022/10/26 07:56:51;;;;;;;5.80;3.53;;;;;;;15.50;84.76;100530.03;5047325;28;20395;-78
2022/10/26 07:59:17;;;;;;;6.87;3.43;;;;;;;15.55;84.68;100529.19;5045227;28;20768;-78
2022/10/26 08:01:43;;;;;;;7.78;3.92;;;;;;;15.61;84.40;100541.75;5045527;28;20405;-77
2022/10/26 08:04:08;;;;;;;5.97;3.03;;;;;;;15.67;84.48;100550.75;5044264;28;20417;-78
2022/10/26 08:06:33;;;;;;;4.85;3.35;;;;;;;15.74;84.29;100548.56;5036894;28;20510;-78
2022/10/26 08:08:59;;;;;;;7.00;4.00;;;;;;;15.80;84.06;100548.28;5037646;28;20435;-78
2022/10/26 08:11:24;;;;;;;9.70;3.90;;;;;;;15.89;83.75;100552.06;5041635;28;20471;-78
2022/10/26 08:13:53;;;;;;;6.30;3.55;;;;;;;15.91;83.74;100552.59;5040486;28;20441;-78
2022/10/26 08:16:19;;;;;;;9.30;3.60;;;;;;;15.97;83.46;100558.91;5020264;28;20475;-78
2022/10/26 08:18:47;;;;;;;6.90;3.60;;;;;;;16.03;83.06;100563.25;5039437;28;20409;-78
2022/10/26 08:21:13;;;;;;;6.50;3.28;;;;;;;16.01;83.47;100562.69;5019519;28;20409;-77
2022/10/26 08:23:38;;;;;;;6.37;3.50;;;;;;;16.01;83.38;100568.97;5038735;28;20443;-78
2022/10/26 08:26:04;;;;;;;9.25;4.18;;;;;;;16.03;83.42;100566.81;5043828;28;20515;-78
2022/10/26 08:28:29;;;;;;;10.20;3.80;;;;;;;16.06;83.31;100570.88;5047602;28;20402;-78
2022/10/26 08:30:55;;;;;;;7.27;3.43;;;;;;;16.16;83.06;100568.13;5044769;28;20468;-79
2022/10/26 08:33:21;;;;;;;4.47;3.42;;;;;;;16.18;82.94;100562.34;5047664;28;20409;-78
2022/10/26 08:35:46;;;;;;;6.80;3.30;;;;;;;16.24;82.86;100563.97;5050440;28;20405;-78
2022/10/26 08:38:12;;;;;;;6.33;3.07;;;;;;;16.31;82.87;100556.28;5055038;28;20934;-78
2022/10/26 08:40:40;;;;;;;8.03;3.20;;;;;;;16.45;82.57;100557.31;5043845;28;20948;-77
2022/10/26 08:43:26;;;;;;;6.40;2.50;;;;;;;16.60;82.26;100563.56;5046262;28;20424;-78
2022/10/26 08:45:56;;;;;;;5.40;2.40;;;;;;;16.74;81.80;100562.94;5050279;28;20436;-78
2022/10/26 08:48:26;;;;;;;6.90;2.60;;;;;;;16.82;81.68;100576.84;5068772;28;20390;-78
2022/10/26 08:51:00;;;;;;;2.85;2.10;;;;;;;16.90;81.62;100576.25;5027436;28;20483;-78
2022/10/26 08:53:35;;;;;;;6.88;2.38;;;;;;;16.94;81.56;100588.28;5045680;28;20780;-79
2022/10/26 08:56:17;;;;;;;5.35;2.15;;;;;;;16.90;81.64;100584.47;5059339;28;20401;-78
2022/10/26 08:58:53;;;;;;;7.43;1.83;;;;;;;16.89;81.87;100595.72;5044638;28;20799;-78
2022/10/26 09:01:18;;;;;;;5.40;2.20;;;;;;;17.07;81.73;100587.63;5045507;28;20397;-78
2022/10/26 09:03:43;;;;;;;5.43;1.93;;;;;;;17.19;81.24;100603.69;5048240;28;20425;-78
2022/10/26 09:06:19;;;;;;;7.93;2.37;;;;;;;17.20;81.08;100599.03;5046654;28;20422;-79
2022/10/26 09:09:09;;;;;;;9.73;2.30;;;;;;;17.18;81.08;100593.88;5055746;28;20436;-78
2022/10/26 09:11:47;;;;;;;4.15;2.28;;;;;;;17.16;81.19;100587.03;5053139;28;20420;-78
2022/10/26 09:14:16;;;;;;;6.43;1.73;;;;;;;17.36;81.22;100582.19;5037647;28;20459;-78
2022/10/26 09:17:10;;;;;;;7.60;2.00;;;;;;;17.76;80.10;100593.94;5046611;28;20409;-78
2022/10/26 09:19:49;;;;;;;8.40;2.22;;;;;;;18.09;78.87;100593.88;5054445;28;20409;-77
2022/10/26 09:22:49;;;;;;;6.03;1.85;;;;;;;18.02;78.29;100587.91;5036536;28;20407;-78
2022/10/26 09:25:20;;;;;;;6.35;1.67;;;;;;;17.84;78.55;100601.53;5055008;28;20402;-78
2022/10/26 09:27:54;;;;;;;3.00;1.63;;;;;;;17.70;78.73;100611.53;5051189;28;20411;-78
2022/10/26 09:30:21;;;;;;;5.40;2.10;;;;;;;17.68;78.97;100616.50;5062807;28;20397;-77
2022/10/26 09:32:55;;;;;;;7.80;1.90;;;;;;;17.87;78.61;100614.66;5055352;28;20405;-78
2022/10/26 09:35:22;;;;;;;5.13;2.20;;;;;;;18.05;77.69;100620.22;5052225;28;20429;-78
2022/10/26 09:38:14;;;;;;;4.38;1.80;;;;;;;18.30;77.38;100623.81;5045316;28;20413;-78
2022/10/26 09:41:07;;;;;;;5.95;2.20;;;;;;;18.61;76.26;100625.91;5043680;28;20899;-78
2022/10/26 09:43:42;;;;;;;6.60;2.03;;;;;;;18.76;75.50;100632.34;5019383;28;20429;-78
2022/10/26 09:46:15;;;;;;;4.32;1.83;;;;;;;18.85;75.42;100633.28;5047956;28;20762;-77
2022/10/26 09:48:48;;;;;;;7.10;2.20;;;;;;;19.14;74.51;100644.97;5049678;28;20404;-77
2022/10/26 09:51:15;;;;;;;8.80;2.60;;;;;;;19.67;72.71;100637.28;5047219;28;20888;-78
2022/10/26 09:53:41;;;;;;;7.45;2.10;;;;;;;20.05;71.00;100647.09;5029130;28;20400;-78
2022/10/26 09:56:10;;;;;;;7.83;2.20;;;;;;;20.28;69.51;100647.22;5054961;28;20787;-78
2022/10/26 09:58:43;;;;;;;5.18;1.92;;;;;;;19.95;70.28;100652.75;5025312;28;20423;-77
2022/10/26 10:01:31;;;;;;;7.10;2.10;;;;;;;19.59;71.56;100662.72;5057361;28;20399;-78
2022/10/26 10:04:12;;;;;;;5.05;2.00;;;;;;;19.39;72.30;100652.03;5040778;28;20415;-78
2022/10/26 10:06:38;;;;;;;6.78;2.38;;;;;;;19.25;72.82;100668.44;5051253;28;20401;-78
2022/10/26 10:09:10;;;;;;;8.98;2.53;;;;;;;19.29;72.80;100657.66;5051140;28;20403;-77
2022/10/26 10:11:38;;;;;;;3.70;2.00;;;;;;;20.19;71.30;100663.59;5058142;28;20484;-79
2022/10/26 10:14:07;;;;;;;5.55;2.00;;;;;;;22.05;64.21;100671.63;5053981;28;20394;-78
2022/10/26 10:16:34;;;;;;;6.53;2.17;;;;;;;23.64;58.52;100666.41;5055121;28;20390;-77
2022/10/26 10:19:00;;;;;;;5.63;2.30;;;;;;;23.19;58.48;100659.53;5051037;28;20410;-78
2022/10/26 10:21:38;;;;;;;3.72;2.42;;;;;;;21.65;62.62;100676.19;5051768;28;20413;-77
2022/10/26 10:24:25;;;;;;;7.88;2.17;;;;;;;20.74;66.11;100677.41;5044526;28;20429;-78
2022/10/26 10:27:16;;;;;;;6.63;2.42;;;;;;;20.32;67.88;100682.09;5027454;28;20401;-78
2022/10/26 10:29:48;;;;;;;5.05;1.90;;;;;;;20.15;68.74;100688.13;5029781;28;20413;-78
2022/10/26 10:32:17;;;;;;;4.25;1.40;;;;;;;20.04;69.08;100683.94;5045949;28;20405;-78
2022/10/26 10:34:42;;;;;;;11.20;2.10;;;;;;;19.89;69.60;100686.16;5052464;28;20455;-78
2022/10/26 10:37:33;;;;;;;6.28;2.20;;;;;;;19.77;70.14;100688.53;5048145;28;20433;-81
2022/10/26 10:40:02;;;;;;;5.60;1.70;;;;;;;19.75;69.90;100688.88;5051067;28;20885;-80
2022/10/26 10:42:32;;;;;;;6.90;1.88;;;;;;;19.77;69.97;100686.63;5033869;28;20408;-81
2022/10/26 10:44:59;;;;;;;9.48;2.22;;;;;;;19.97;69.30;100685.44;5046241;28;20500;-81
2022/10/26 10:47:31;;;;;;;11.65;1.95;;;;;;;20.16;68.66;100694.47;5021859;28;20492;-80
2022/10/26 10:50:01;;;;;;;13.20;2.80;;;;;;;20.19;68.36;100697.44;5052536;28;20401;-80
2022/10/26 10:52:32;;;;;;;8.65;2.50;;;;;;;20.15;68.07;100699.16;5044023;28;20400;-79
2022/10/26 10:55:21;;;;;;;14.23;2.08;;;;;;;20.22;68.12;100708.97;5052881;28;20397;-80
2022/10/26 10:57:55;;;;;;;4.78;2.85;;;;;;;20.36;67.70;100699.63;5034518;28;20402;-80
2022/10/26 11:00:21;;;;;;;4.00;1.60;;;;;;;20.55;67.32;100703.09;5050473;28;20772;-81
2022/10/26 11:03:00;;;;;;;5.45;1.80;;;;;;;20.72;66.56;100705.25;5045188;28;20772;-81
2022/10/26 11:05:59;;;;;;;5.40;1.85;;;;;;;20.81;66.25;100711.72;5045149;28;20397;-80
2022/10/26 11:08:55;;;;;;;6.45;2.05;;;;;;;20.97;65.57;100710.25;5044112;28;20393;-80
2022/10/26 11:11:33;;;;;;;5.35;2.47;;;;;;;21.06;65.51;100705.66;5048820;28;20409;-80
2022/10/26 11:14:07;;;;;;;4.17;1.53;;;;;;;21.10;65.40;100711.41;5049478;28;20406;-81
2022/10/26 11:16:36;;;;;;;5.30;2.03;;;;;;;21.07;65.36;100718.31;5040731;28;20407;-77
2022/10/26 11:19:23;;;;;;;6.25;1.83;;;;;;;21.07;65.04;100710.03;5044746;28;20488;-77
2022/10/26 11:21:53;;;;;;;8.07;1.80;;;;;;;20.98;64.43;100711.88;5054293;28;20439;-77
2022/10/26 11:24:48;;;;;;;3.75;1.70;;;;;;;21.05;63.90;100705.94;5050293;28;20915;-77
2022/10/26 11:27:24;;;;;;;8.23;1.60;;;;;;;21.11;63.64;100708.31;5031165;28;20405;-77
2022/10/26 11:29:52;;;;;;;12.68;2.10;;;;;;;21.20;63.44;100711.19;5047903;28;20765;-77
2022/10/26 11:32:44;;;;;;;6.45;2.17;;;;;;;21.11;63.16;100716.59;5050161;28;20405;-77
2022/10/26 11:35:41;;;;;;;6.65;1.52;;;;;;;20.92;63.59;100706.78;5037462;28;20413;-78
2022/10/26 11:38:35;;;;;;;7.10;2.00;;;;;;;20.88;63.65;100712.09;5050486;28;20540;-77
2022/10/26 11:41:09;;;;;;;7.45;1.60;;;;;;;20.84;63.93;100718.53;5052852;28;20398;-77